Time;durP1;ratioP1;P1;durP2;ratioP2;P2;SDS_P1;SDS_P2;PMS_P1;PMS_P2;Temp;Humidity;BMP_temperature;BMP_pressure;BME280_temperature;BME280_humidity;BME280_pressure;Samples;Min_cycle;Max_cycle;Signal;HPM_P1;HPM_P2
2020/12/15 00:01:21;;;;;;;49.50;30.00;;;;;;;0.68;90.34;100642.82;1740521;82;21013;-69
2020/12/15 00:03:50;;;;;;;57.20;32.75;;;;;;;0.68;90.26;100639.83;1740599;82;20929;-69
2020/12/15 00:06:18;;;;;;;48.17;29.57;;;;;;;0.69;90.25;100648.37;1740542;82;22503;-69
2020/12/15 00:08:46;;;;;;;44.88;28.70;;;;;;;0.69;90.16;100642.81;1740535;82;20941;-70
2020/12/15 00:11:18;;;;;;;45.23;29.20;;;;;;;0.69;90.17;100655.62;1740605;82;21566;-70
2020/12/15 00:13:48;;;;;;;44.53;28.73;;;;;;;0.69;90.24;100648.37;1740474;82;20965;-71
2020/12/15 00:16:19;;;;;;;47.45;29.50;;;;;;;0.70;90.19;100656.48;1740547;82;20989;-70
2020/12/15 00:18:48;;;;;;;47.17;29.30;;;;;;;0.70;90.22;100652.20;1740506;82;21317;-73
2020/12/15 00:21:22;;;;;;;49.27;29.82;;;;;;;0.73;90.33;100644.92;1740408;82;20981;-74
2020/12/15 00:23:52;;;;;;;53.40;30.50;;;;;;;0.73;90.24;100643.22;1740461;82;20937;-73
2020/12/15 00:26:20;;;;;;;50.48;30.97;;;;;;;0.74;90.19;100644.06;1740675;82;20945;-74
2020/12/15 00:28:49;;;;;;;46.63;29.18;;;;;;;0.73;90.14;100644.92;1740705;82;20926;-74
2020/12/15 00:31:18;;;;;;;53.60;29.07;;;;;;;0.74;90.14;100651.75;1740669;82;21805;-74
2020/12/15 00:33:46;;;;;;;47.03;29.42;;;;;;;0.74;90.13;100654.32;1740634;82;21395;-74
2020/12/15 00:36:21;;;;;;;45.45;29.40;;;;;;;0.74;90.10;100654.32;1740697;82;21017;-74
2020/12/15 00:38:49;;;;;;;48.68;29.18;;;;;;;0.71;90.07;100652.62;1740631;82;20957;-74
2020/12/15 00:41:20;;;;;;;47.93;30.80;;;;;;;0.72;90.16;100649.63;1740661;82;20937;-74
2020/12/15 00:43:49;;;;;;;48.83;29.87;;;;;;;0.72;90.23;100650.91;1740664;82;21197;-70
2020/12/15 00:46:18;;;;;;;48.48;31.42;;;;;;;0.74;90.25;100651.75;1740609;82;20961;-70
2020/12/15 00:48:47;;;;;;;48.23;30.57;;;;;;;0.75;90.23;100652.17;1740664;82;21016;-70
2020/12/15 00:51:19;;;;;;;50.23;31.48;;;;;;;0.75;90.19;100646.63;1740743;82;21503;-69
2020/12/15 00:53:48;;;;;;;48.05;29.90;;;;;;;0.77;90.13;100647.89;1740798;82;20929;-69
2020/12/15 00:56:18;;;;;;;47.95;31.42;;;;;;;0.76;90.03;100654.73;1740640;82;21364;-69
2020/12/15 00:58:47;;;;;;;50.33;30.95;;;;;;;0.77;90.14;100661.99;1740614;82;20953;-70
2020/12/15 01:01:16;;;;;;;63.50;39.90;;;;;;;0.76;90.17;100657.30;1740664;82;21463;-69
2020/12/15 01:03:44;;;;;;;52.10;33.55;;;;;;;0.77;90.10;100655.16;1740619;82;20989;-70
2020/12/15 01:06:14;;;;;;;55.58;32.15;;;;;;;0.76;90.01;100655.16;1740134;82;21004;-69
2020/12/15 01:08:43;;;;;;;43.17;29.05;;;;;;;0.72;90.10;100658.60;1740662;82;21188;-69
2020/12/15 01:11:13;;;;;;;46.77;29.98;;;;;;;0.73;90.18;100658.59;1739586;82;21020;-69
2020/12/15 01:13:43;;;;;;;45.78;28.42;;;;;;;0.73;90.20;100655.17;1740657;82;21004;-69
2020/12/15 01:16:12;;;;;;;48.08;28.95;;;;;;;0.71;90.20;100662.02;1740589;82;21032;-73
2020/12/15 01:18:44;;;;;;;46.98;29.32;;;;;;;0.70;90.31;100666.73;1740202;82;21028;-72
2020/12/15 01:21:14;;;;;;;46.85;29.27;;;;;;;0.71;90.38;100671.00;1712785;83;22264;-69
2020/12/15 01:23:44;;;;;;;46.37;29.20;;;;;;;0.70;90.40;100671.42;1729428;82;20985;-68
2020/12/15 01:26:13;;;;;;;46.23;30.17;;;;;;;0.72;90.41;100677.39;1729862;83;21444;-68
2020/12/15 01:28:42;;;;;;;44.45;27.70;;;;;;;0.73;90.49;100670.56;1729882;82;21625;-68
2020/12/15 01:31:10;;;;;;;47.35;27.85;;;;;;;0.75;90.54;100673.97;1729943;83;21587;-69
2020/12/15 01:33:42;;;;;;;47.83;28.10;;;;;;;0.76;90.52;100676.52;1729435;82;22252;-68
2020/12/15 01:36:13;;;;;;;45.75;28.35;;;;;;;0.79;90.47;100669.24;1729222;82;21036;-69
2020/12/15 01:38:43;;;;;;;45.12;28.30;;;;;;;0.81;90.43;100667.48;1726517;82;21566;-68
2020/12/15 01:41:14;;;;;;;44.03;28.73;;;;;;;0.82;90.41;100675.17;1728691;82;21562;-69
2020/12/15 01:43:55;;;;;;;44.88;26.87;;;;;;;0.84;90.42;100673.45;1730002;83;21033;-69
2020/12/15 01:46:26;;;;;;;47.50;28.02;;;;;;;0.87;90.37;100680.27;1729864;83;21185;-70
2020/12/15 01:48:55;;;;;;;46.73;29.72;;;;;;;0.88;90.31;100684.55;1729828;83;21005;-69
2020/12/15 01:51:25;;;;;;;48.55;30.23;;;;;;;0.89;90.25;100687.09;1729838;83;21008;-71
2020/12/15 01:53:55;;;;;;;45.80;28.38;;;;;;;0.89;90.20;100684.53;1729943;83;21597;-70
2020/12/15 01:56:26;;;;;;;45.98;28.83;;;;;;;0.90;90.17;100684.95;1729886;83;21594;-70
2020/12/15 01:59:01;;;;;;;47.00;27.40;;;;;;;0.90;90.18;100687.52;1729848;83;21362;-69
2020/12/15 02:01:30;;;;;;;47.53;28.00;;;;;;;0.90;90.12;100685.39;1677210;83;21001;-70
2020/12/15 02:03:58;;;;;;;45.83;28.55;;;;;;;0.90;90.11;100691.36;1729865;82;21442;-69
2020/12/15 02:06:43;;;;;;;44.80;28.15;;;;;;;0.89;90.09;100690.09;1728694;82;20979;-70
2020/12/15 02:09:12;;;;;;;45.20;27.70;;;;;;;0.89;90.11;100692.66;1729910;82;21017;-69
2020/12/15 02:11:44;;;;;;;44.73;27.87;;;;;;;0.88;90.12;100693.09;1729532;82;21366;-71
2020/12/15 02:14:13;;;;;;;43.20;27.50;;;;;;;0.88;90.16;100694.80;1729814;83;21017;-69
2020/12/15 02:16:42;;;;;;;41.48;26.97;;;;;;;0.90;90.20;100693.08;1729886;83;21029;-69
2020/12/15 02:19:17;;;;;;;46.37;26.12;;;;;;;0.92;90.18;100691.36;1711619;83;20965;-69
2020/12/15 02:21:50;;;;;;;40.05;26.45;;;;;;;0.92;90.14;100690.92;1709842;82;21020;-70
2020/12/15 02:24:19;;;;;;;46.00;28.15;;;;;;;0.94;90.13;100689.63;1708139;82;22178;-71
2020/12/15 02:26:49;;;;;;;46.42;29.25;;;;;;;0.95;90.08;100683.22;1731493;82;20934;-70
2020/12/15 02:29:18;;;;;;;42.23;26.23;;;;;;;0.95;90.04;100683.64;1732974;82;21020;-70
2020/12/15 02:31:46;;;;;;;43.63;27.67;;;;;;;0.95;90.06;100673.39;1732946;82;20925;-69
2020/12/15 02:34:16;;;;;;;46.68;27.75;;;;;;;0.96;90.01;100675.95;1733002;82;21554;-70
2020/12/15 02:36:44;;;;;;;44.50;27.90;;;;;;;0.98;89.96;100674.66;1733010;82;21184;-69
2020/12/15 02:39:16;;;;;;;46.98;27.42;;;;;;;0.98;89.94;100672.94;1731841;82;21032;-69
2020/12/15 02:41:53;;;;;;;46.90;27.20;;;;;;;0.99;89.94;100675.08;1728466;82;20951;-69
2020/12/15 02:44:23;;;;;;;47.70;26.65;;;;;;;0.98;89.93;100675.94;1732933;82;21000;-70
2020/12/15 02:46:53;;;;;;;47.15;27.90;;;;;;;0.98;89.86;100675.94;1731895;82;21423;-70
2020/12/15 02:49:21;;;;;;;46.88;26.90;;;;;;;0.97;89.90;100676.37;1732933;82;21423;-69
2020/12/15 02:51:50;;;;;;;42.55;25.70;;;;;;;0.97;89.93;100676.37;1732910;82;20945;-69
2020/12/15 02:54:20;;;;;;;40.45;25.70;;;;;;;0.99;89.89;100681.48;1731369;82;20961;-69
2020/12/15 02:56:48;;;;;;;39.92;25.10;;;;;;;1.00;89.88;100681.91;1732963;82;20931;-69
2020/12/15 02:59:17;;;;;;;40.83;25.72;;;;;;;1.00;89.86;100683.19;1708007;82;20938;-70
2020/12/15 03:01:46;;;;;;;45.28;27.73;;;;;;;1.00;89.86;100681.91;1733049;82;21196;-69
2020/12/15 03:04:15;;;;;;;42.75;25.52;;;;;;;1.02;89.84;100681.47;1732877;82;20973;-70
2020/12/15 03:06:45;;;;;;;47.88;26.62;;;;;;;1.01;89.82;100682.33;1732630;82;21008;-69
2020/12/15 03:09:15;;;;;;;44.38;26.00;;;;;;;1.01;89.81;100688.73;1732526;82;20996;-69
2020/12/15 03:11:45;;;;;;;42.95;25.48;;;;;;;1.01;89.79;100683.61;1708031;82;21076;-69
2020/12/15 03:14:15;;;;;;;41.92;24.70;;;;;;;1.01;89.89;100684.89;1731787;82;21564;-69
2020/12/15 03:16:43;;;;;;;42.45;25.20;;;;;;;1.01;89.90;100683.61;1732845;82;21025;-69
2020/12/15 03:19:13;;;;;;;41.30;23.83;;;;;;;1.02;89.86;100676.77;1732887;82;21041;-69
2020/12/15 03:21:41;;;;;;;40.45;24.75;;;;;;;1.02;89.81;100682.75;1735958;82;20957;-70
2020/12/15 03:24:09;;;;;;;40.45;23.92;;;;;;;1.03;89.81;100684.45;1740555;82;20953;-69
2020/12/15 03:26:38;;;;;;;38.85;24.25;;;;;;;1.03;89.80;100687.45;1740488;82;21189;-69
2020/12/15 03:29:08;;;;;;;41.45;24.98;;;;;;;1.03;89.76;100688.73;1740507;82;20953;-69
2020/12/15 03:31:37;;;;;;;36.30;23.30;;;;;;;1.00;89.73;100687.89;1740627;82;21511;-69
2020/12/15 03:34:07;;;;;;;38.13;23.57;;;;;;;1.00;89.73;100687.89;1740488;82;20957;-69
2020/12/15 03:36:36;;;;;;;37.40;22.45;;;;;;;0.99;89.76;100682.77;1740671;82;21379;-69
2020/12/15 03:39:06;;;;;;;39.45;23.30;;;;;;;0.99;89.80;100685.33;1740516;82;21188;-68
2020/12/15 03:41:34;;;;;;;58.13;31.15;;;;;;;0.99;89.75;100676.36;1740488;82;21028;-69
2020/12/15 03:44:05;;;;;;;71.30;36.98;;;;;;;0.97;89.77;100689.62;1740015;82;21020;-68
2020/12/15 03:46:38;;;;;;;63.45;34.33;;;;;;;0.95;89.85;100683.64;1738585;82;21497;-68
2020/12/15 03:49:09;;;;;;;47.35;26.50;;;;;;;0.96;89.88;100696.89;1740713;82;21526;-68
2020/12/15 03:51:39;;;;;;;38.28;23.42;;;;;;;0.95;89.83;100701.59;1740368;82;21425;-68
2020/12/15 03:54:25;;;;;;;36.83;23.57;;;;;;;0.94;89.92;100697.33;1740646;82;21024;-68
2020/12/15 03:57:13;;;;;;;38.60;22.77;;;;;;;0.94;90.04;100702.45;1687015;85;20987;-69
2020/12/15 03:59:50;;;;;;;35.78;25.48;;;;;;;0.98;90.04;100702.42;1795631;77;27813;-70
2020/12/15 04:02:19;;;;;;;38.17;23.83;;;;;;;0.98;90.00;100703.71;1796255;80;20940;-69
2020/12/15 04:04:49;;;;;;;38.25;24.25;;;;;;;1.05;89.82;100709.66;1796256;80;21198;-70
2020/12/15 04:07:18;;;;;;;38.67;23.22;;;;;;;1.06;89.80;100709.22;1796172;80;20901;-70
2020/12/15 04:09:46;;;;;;;39.13;22.50;;;;;;;1.07;89.80;100705.80;1796294;80;21565;-70
2020/12/15 04:12:15;;;;;;;44.48;25.12;;;;;;;1.07;89.73;100711.78;1796240;80;21529;-70
2020/12/15 04:14:43;;;;;;;41.77;24.57;;;;;;;1.07;89.70;100710.93;1848351;77;21033;-69
2020/12/15 04:17:11;;;;;;;39.33;22.80;;;;;;;1.06;89.74;100715.64;1848221;77;22012;-70
2020/12/15 04:19:41;;;;;;;46.23;26.33;;;;;;;1.05;89.75;100722.48;1848211;77;21369;-69
2020/12/15 04:22:10;;;;;;;39.08;24.20;;;;;;;1.06;89.79;100727.17;1848154;77;20931;-70
2020/12/15 04:24:40;;;;;;;40.58;25.30;;;;;;;1.05;89.75;100725.05;1846959;77;21014;-69
2020/12/15 04:27:10;;;;;;;37.85;24.07;;;;;;;1.05;89.78;100725.47;1847967;77;21019;-70
2020/12/15 04:29:39;;;;;;;39.40;23.07;;;;;;;1.05;89.77;100725.47;1848236;77;22217;-69
2020/12/15 04:32:09;;;;;;;37.95;22.37;;;;;;;1.03;89.75;100720.35;1848008;77;20943;-69
2020/12/15 04:34:42;;;;;;;41.08;24.02;;;;;;;1.03;89.83;100722.92;1846554;77;20930;-69
2020/12/15 04:37:11;;;;;;;38.55;23.40;;;;;;;1.03;89.97;100720.35;1848127;77;21457;-69
2020/12/15 04:39:42;;;;;;;41.25;23.47;;;;;;;1.04;90.21;100734.88;1846850;77;20933;-69
2020/12/15 04:42:10;;;;;;;35.83;22.42;;;;;;;1.06;90.12;100731.87;1848184;77;21324;-69
2020/12/15 04:44:40;;;;;;;37.05;22.85;;;;;;;1.08;90.04;100728.02;1848150;77;20979;-69
2020/12/15 04:47:35;;;;;;;42.53;21.77;;;;;;;1.09;90.05;100733.14;1848150;77;20915;-71
2020/12/15 04:50:09;;;;;;;39.27;23.77;;;;;;;1.10;90.05;100739.13;1848138;77;21421;-69
2020/12/15 04:52:57;;;;;;;44.35;25.65;;;;;;;1.11;90.04;100737.83;1847300;77;20945;-72
2020/12/15 04:55:29;;;;;;;45.63;27.05;;;;;;;1.10;89.93;100741.26;1842362;77;21182;-70
2020/12/15 04:58:00;;;;;;;46.35;28.42;;;;;;;1.10;89.87;100740.41;1796554;77;21010;-69
2020/12/15 05:00:29;;;;;;;43.80;25.55;;;;;;;1.09;89.86;100745.97;1845486;77;20978;-72
2020/12/15 05:02:59;;;;;;;43.28;24.18;;;;;;;1.12;89.79;100751.51;1810530;77;20983;-73
2020/12/15 05:05:29;;;;;;;42.75;25.62;;;;;;;1.13;89.87;100751.93;1845444;77;21026;-73
2020/12/15 05:08:02;;;;;;;55.35;31.05;;;;;;;1.14;89.82;100752.35;1845446;77;21394;-72
2020/12/15 05:10:35;;;;;;;53.68;30.80;;;;;;;1.14;89.76;100751.06;1839207;77;21469;-72
2020/12/15 05:13:11;;;;;;;49.63;29.23;;;;;;;1.14;89.75;100757.05;1835170;77;21465;-68
2020/12/15 05:15:40;;;;;;;48.92;28.30;;;;;;;1.15;89.72;100752.34;1844958;77;20927;-69
2020/12/15 05:18:10;;;;;;;49.48;27.95;;;;;;;1.17;89.68;100754.90;1841383;77;20943;-69
2020/12/15 05:20:40;;;;;;;39.60;24.55;;;;;;;1.17;89.55;100750.62;1844976;77;21350;-69
2020/12/15 05:23:11;;;;;;;36.85;23.50;;;;;;;1.16;89.49;100757.89;1843005;77;21350;-69
2020/12/15 05:25:41;;;;;;;40.70;25.88;;;;;;;1.16;89.40;100757.89;1844842;77;20923;-69
2020/12/15 05:28:13;;;;;;;44.18;27.85;;;;;;;1.16;89.38;100764.73;1844885;77;21541;-69
2020/12/15 05:30:42;;;;;;;42.83;27.15;;;;;;;1.16;89.34;100767.30;1845005;77;20888;-69
2020/12/15 05:33:21;;;;;;;44.63;26.37;;;;;;;1.15;89.38;100761.75;1789327;80;22058;-69
2020/12/15 05:35:57;;;;;;;39.50;24.70;;;;;;;1.15;89.32;100761.75;1841014;77;21007;-70
2020/12/15 05:38:28;;;;;;;39.92;25.15;;;;;;;1.13;89.27;100765.61;1843487;77;21050;-69
2020/12/15 05:41:04;;;;;;;38.98;25.08;;;;;;;1.11;89.29;100767.33;1843055;77;20923;-69
2020/12/15 05:43:36;;;;;;;40.40;25.30;;;;;;;1.10;89.33;100769.47;1820652;77;20967;-69
2020/12/15 05:46:04;;;;;;;39.15;24.87;;;;;;;1.10;89.40;100766.05;1767000;77;21253;-69
2020/12/15 05:48:35;;;;;;;40.05;25.60;;;;;;;1.11;89.40;100782.72;1821563;77;20955;-69
2020/12/15 05:51:03;;;;;;;39.13;24.35;;;;;;;1.12;89.46;100778.44;1844828;77;21014;-72
2020/12/15 05:53:31;;;;;;;43.92;26.60;;;;;;;1.10;89.47;100774.59;1844724;77;21456;-73
2020/12/15 05:55:59;;;;;;;39.45;24.72;;;;;;;1.11;89.42;100778.87;1843901;77;21015;-67
2020/12/15 05:58:28;;;;;;;43.35;25.85;;;;;;;1.10;89.50;100781.44;1839938;77;21222;-70
2020/12/15 06:00:56;;;;;;;40.03;25.17;;;;;;;1.10;89.76;100779.73;1821158;78;21615;-70
2020/12/15 06:03:24;;;;;;;39.78;25.02;;;;;;;1.12;89.73;100789.55;1827294;78;21353;-70
2020/12/15 06:05:53;;;;;;;37.33;23.80;;;;;;;1.15;89.92;100791.25;1822232;78;20999;-69
2020/12/15 06:08:21;;;;;;;32.08;23.02;;;;;;;1.17;89.87;100794.66;1826310;77;20975;-71
2020/12/15 06:10:50;;;;;;;34.08;22.50;;;;;;;1.18;89.72;100800.21;1815367;77;22275;-71
2020/12/15 06:13:18;;;;;;;38.30;24.00;;;;;;;1.19;89.62;100801.48;1813823;77;21042;-72
2020/12/15 06:15:47;;;;;;;34.90;22.58;;;;;;;1.19;89.58;100801.48;1797870;78;21050;-70
2020/12/15 06:18:15;;;;;;;35.03;23.98;;;;;;;1.21;89.55;100795.88;1811475;77;21615;-71
2020/12/15 06:20:44;;;;;;;40.50;24.82;;;;;;;1.21;89.48;100797.17;1785457;78;21032;-69
2020/12/15 06:23:14;;;;;;;40.35;24.60;;;;;;;1.23;89.50;100794.16;1784817;78;22912;-69
2020/12/15 06:25:47;;;;;;;41.55;25.95;;;;;;;1.24;89.47;100801.00;1798448;78;21043;-79
2020/12/15 06:28:16;;;;;;;47.73;30.30;;;;;;;1.25;89.37;100811.68;1787780;78;21609;-74
2020/12/15 06:30:46;;;;;;;44.00;27.58;;;;;;;1.26;89.30;100821.08;1787375;78;21596;-75
2020/12/15 06:33:14;;;;;;;40.78;26.80;;;;;;;1.28;89.25;100823.21;1780696;80;21036;-74
2020/12/15 06:35:48;;;;;;;39.60;26.33;;;;;;;1.28;89.18;100818.52;1764134;80;21313;-78
2020/12/15 06:38:18;;;;;;;40.43;25.95;;;;;;;1.27;89.19;100821.94;1765571;80;21226;-75
2020/12/15 06:40:49;;;;;;;44.25;26.60;;;;;;;1.28;89.14;100819.36;1764541;80;21477;-72
2020/12/15 06:43:27;;;;;;;39.63;26.80;;;;;;;1.29;89.23;100819.78;1764724;80;21019;-77
2020/12/15 06:46:10;;;;;;;39.50;23.75;;;;;;;1.30;89.21;100824.48;1807680;77;21070;-75
2020/12/15 06:48:39;;;;;;;36.00;24.00;;;;;;;1.31;89.27;100828.33;1800595;78;21095;-73
2020/12/15 06:51:07;;;;;;;41.08;24.65;;;;;;;1.35;89.25;100830.45;1822141;77;21085;-71
2020/12/15 06:53:36;;;;;;;39.15;24.95;;;;;;;1.38;89.18;100832.14;1792995;78;21074;-70
2020/12/15 06:56:09;;;;;;;39.73;25.70;;;;;;;1.40;89.11;100837.69;1832759;77;21757;-70
2020/12/15 06:58:37;;;;;;;42.45;26.70;;;;;;;1.42;89.05;100837.69;1820031;77;20999;-73
2020/12/15 07:01:06;;;;;;;39.85;24.82;;;;;;;1.43;88.99;100830.41;1847163;77;21174;-71
2020/12/15 07:03:39;;;;;;;39.40;26.42;;;;;;;1.44;89.00;100830.40;1853168;77;21031;-76
2020/12/15 07:06:14;;;;;;;39.10;25.82;;;;;;;1.47;89.00;100832.09;1844889;77;21048;-72
2020/12/15 07:08:44;;;;;;;35.80;24.60;;;;;;;1.48;88.88;100838.50;1827342;77;21023;-72
2020/12/15 07:11:14;;;;;;;43.10;26.20;;;;;;;1.49;88.79;100839.36;1838603;77;20988;-72
2020/12/15 07:13:43;;;;;;;37.65;24.85;;;;;;;1.49;88.81;100845.34;1823204;77;21117;-72
2020/12/15 07:16:18;;;;;;;36.48;24.90;;;;;;;1.51;88.81;100856.45;1814560;77;21331;-71
2020/12/15 07:18:47;;;;;;;33.42;23.65;;;;;;;1.54;88.79;100849.17;1792753;77;21077;-72
2020/12/15 07:21:15;;;;;;;38.42;24.92;;;;;;;1.57;88.71;100857.70;1811238;77;20979;-73
2020/12/15 07:23:46;;;;;;;35.58;24.47;;;;;;;1.59;88.73;100853.84;1809948;77;21632;-72
2020/12/15 07:26:16;;;;;;;39.30;25.43;;;;;;;1.61;88.75;100843.95;1832288;76;21356;-72
2020/12/15 07:28:46;;;;;;;49.42;30.20;;;;;;;1.65;88.69;100845.64;1834177;77;21010;-73
2020/12/15 07:31:28;;;;;;;58.63;33.73;;;;;;;1.68;88.61;100849.91;1821891;77;21204;-72
2020/12/15 07:34:10;;;;;;;56.92;34.60;;;;;;;1.74;88.52;100847.73;1819843;77;21613;-71
2020/12/15 07:36:42;;;;;;;60.40;35.08;;;;;;;1.76;88.40;100855.84;1817875;77;20997;-71
2020/12/15 07:39:10;;;;;;;58.83;34.38;;;;;;;1.77;88.23;100862.69;1812951;77;21459;-70
2020/12/15 07:41:38;;;;;;;51.05;31.93;;;;;;;1.79;88.22;100857.11;1823976;77;21078;-71
2020/12/15 07:44:18;;;;;;;50.52;31.02;;;;;;;1.80;88.18;100856.67;1769171;81;20987;-71
2020/12/15 07:46:49;;;;;;;44.20;28.65;;;;;;;1.82;88.11;100858.38;1769578;79;21120;-71
2020/12/15 07:49:18;;;;;;;43.73;28.65;;;;;;;1.84;88.08;100851.52;1775669;79;21778;-72
2020/12/15 07:51:46;;;;;;;41.48;27.77;;;;;;;1.89;88.07;100855.33;1792873;79;21151;-73
2020/12/15 07:54:14;;;;;;;43.42;31.23;;;;;;;1.91;87.95;100857.02;1794455;79;21019;-68
2020/12/15 07:56:45;;;;;;;39.18;27.77;;;;;;;1.95;87.79;100863.00;1782431;79;21715;-69
2020/12/15 07:59:13;;;;;;;38.98;27.20;;;;;;;1.98;87.65;100865.54;1770434;79;21026;-69
2020/12/15 08:01:42;;;;;;;41.00;26.57;;;;;;;2.00;87.54;100867.20;1779030;79;21028;-69
2020/12/15 08:04:15;;;;;;;40.15;27.30;;;;;;;2.01;87.38;100868.05;1803954;79;21644;-69
2020/12/15 08:06:46;;;;;;;39.10;26.15;;;;;;;2.03;87.33;100862.91;1801204;79;21049;-69
2020/12/15 08:09:16;;;;;;;45.70;27.80;;;;;;;2.03;87.32;100870.61;1779482;79;21055;-69
2020/12/15 08:11:48;;;;;;;45.40;29.30;;;;;;;2.06;87.27;100870.59;1790470;78;21328;-74
2020/12/15 08:14:16;;;;;;;43.38;30.25;;;;;;;2.06;87.19;100875.30;1771165;81;21075;-76
2020/12/15 08:16:47;;;;;;;43.10;29.57;;;;;;;2.07;87.18;100877.43;1758890;80;21156;-74
2020/12/15 08:19:16;;;;;;;47.15;30.20;;;;;;;2.08;87.12;100872.28;1791783;78;21871;-79
2020/12/15 08:21:49;;;;;;;40.08;25.72;;;;;;;2.11;87.15;100879.12;1789840;78;21072;-75
2020/12/15 08:24:22;;;;;;;46.42;27.02;;;;;;;2.15;87.09;100880.37;1778528;79;20967;-74
2020/12/15 08:26:50;;;;;;;46.08;25.72;;;;;;;2.19;86.90;100888.91;1800585;79;21586;-76
2020/12/15 08:29:20;;;;;;;42.62;26.17;;;;;;;2.18;86.84;100888.48;1772824;79;21441;-74
2020/12/15 08:31:48;;;;;;;41.50;26.02;;;;;;;2.19;86.83;100888.91;1772292;79;21070;-71
2020/12/15 08:34:20;;;;;;;37.85;24.32;;;;;;;2.20;86.72;100888.89;1772879;79;21020;-74
2020/12/15 08:36:53;;;;;;;35.90;24.23;;;;;;;2.22;86.62;100886.31;1786790;79;21117;-70
2020/12/15 08:39:24;;;;;;;39.48;24.85;;;;;;;2.25;86.52;100890.14;1797112;79;21657;-74
2020/12/15 08:41:55;;;;;;;35.20;23.65;;;;;;;2.27;86.41;100886.70;1790979;79;22055;-74
2020/12/15 08:44:24;;;;;;;41.45;24.30;;;;;;;2.29;86.38;100881.55;1791454;79;21008;-72
2020/12/15 08:46:56;;;;;;;38.63;25.35;;;;;;;2.29;86.50;100887.53;1804223;78;21601;-75
2020/12/15 08:49:26;;;;;;;36.15;23.73;;;;;;;2.32;86.50;100887.52;1803511;79;20897;-73
2020/12/15 08:51:55;;;;;;;38.35;23.98;;;;;;;2.36;86.34;100886.20;1773277;79;21594;-77
2020/12/15 08:54:24;;;;;;;41.37;25.25;;;;;;;2.39;86.26;100885.74;1773677;79;21198;-75
2020/12/15 08:56:52;;;;;;;34.92;22.98;;;;;;;2.42;86.04;100886.97;1770557;80;21064;-72
2020/12/15 08:59:23;;;;;;;35.35;24.00;;;;;;;2.42;85.89;100890.83;1767413;80;20977;-72
2020/12/15 09:01:58;;;;;;;35.50;24.43;;;;;;;2.42;85.73;100888.69;1769573;80;21067;-69
2020/12/15 09:04:27;;;;;;;37.13;24.47;;;;;;;2.40;85.71;100889.98;1780103;79;21202;-71
2020/12/15 09:06:56;;;;;;;52.45;31.50;;;;;;;2.40;85.72;100884.84;1795413;79;21645;-72
2020/12/15 09:09:32;;;;;;;43.13;26.65;;;;;;;2.42;85.63;100889.54;1769208;79;21003;-72
2020/12/15 09:12:02;;;;;;;39.50;25.85;;;;;;;2.42;85.54;100889.54;1828661;77;20944;-70
2020/12/15 09:14:31;;;;;;;40.45;24.90;;;;;;;2.43;85.58;100889.11;1818637;78;21022;-73
2020/12/15 09:17:00;;;;;;;42.13;26.00;;;;;;;2.43;85.50;100890.39;1811064;77;20979;-73
2020/12/15 09:19:29;;;;;;;43.13;26.97;;;;;;;2.42;85.94;100892.11;1812927;77;21421;-72
2020/12/15 09:21:59;;;;;;;42.75;26.82;;;;;;;2.43;85.70;100889.11;1823880;77;21003;-71
2020/12/15 09:24:27;;;;;;;50.20;29.55;;;;;;;2.42;85.75;100888.25;1832790;77;20998;-71
2020/12/15 09:26:56;;;;;;;39.78;25.80;;;;;;;2.42;86.05;100893.83;1812515;77;21007;-71
2020/12/15 09:29:31;;;;;;;41.23;26.70;;;;;;;2.40;85.91;100897.70;1820415;77;21189;-72
2020/12/15 09:32:01;;;;;;;43.33;25.85;;;;;;;2.42;86.03;100891.25;1842799;77;22212;-72
2020/12/15 09:34:31;;;;;;;42.33;26.68;;;;;;;2.43;86.03;100896.81;1842534;77;21650;-72
2020/12/15 09:37:00;;;;;;;39.83;27.17;;;;;;;2.42;85.85;100901.11;1769358;80;21008;-72
2020/12/15 09:39:30;;;;;;;41.70;27.20;;;;;;;2.40;85.67;100900.27;1799235;79;21083;-70
2020/12/15 09:42:01;;;;;;;46.23;27.42;;;;;;;2.40;85.57;100902.83;1793489;79;21033;-71
2020/12/15 09:44:31;;;;;;;44.70;28.10;;;;;;;2.40;85.67;100898.16;1798968;79;21536;-74
2020/12/15 09:47:04;;;;;;;40.73;26.55;;;;;;;2.42;85.61;100901.11;1781504;78;21079;-70
2020/12/15 09:49:34;;;;;;;41.73;26.30;;;;;;;2.44;85.57;100909.66;1797805;79;21044;-74
2020/12/15 09:52:03;;;;;;;40.17;26.65;;;;;;;2.45;86.05;100910.08;1770136;79;21568;-70
2020/12/15 09:54:32;;;;;;;40.10;25.85;;;;;;;2.48;86.20;100906.19;1770401;79;21052;-71
2020/12/15 09:57:00;;;;;;;42.08;27.77;;;;;;;2.49;86.15;100904.05;1776952;79;21370;-71
2020/12/15 09:59:30;;;;;;;51.45;31.23;;;;;;;2.51;86.22;100915.17;1772991;79;21660;-70
2020/12/15 10:01:59;;;;;;;66.62;41.18;;;;;;;2.52;86.05;100914.73;1772250;79;21090;-71
2020/12/15 10:04:27;;;;;;;85.40;46.90;;;;;;;2.52;85.94;100913.45;1794141;79;20973;-76
2020/12/15 10:06:56;;;;;;;75.78;43.55;;;;;;;2.54;85.82;100917.71;1799263;79;21021;-75
2020/12/15 10:09:24;;;;;;;61.02;36.33;;;;;;;2.53;85.87;100917.29;1769494;81;21053;-75
2020/12/15 10:11:52;;;;;;;52.90;33.88;;;;;;;2.51;85.82;100911.74;1824255;78;21575;-69
2020/12/15 10:14:21;;;;;;;79.85;47.78;;;;;;;2.50;85.87;100908.31;1853877;77;21102;-70
2020/12/15 10:16:49;;;;;;;78.15;45.30;;;;;;;2.49;85.92;100907.05;1854636;77;21003;-76
2020/12/15 10:19:18;;;;;;;68.00;40.50;;;;;;;2.49;85.94;100910.47;1793229;78;21328;-73
2020/12/15 10:21:46;;;;;;;56.40;36.13;;;;;;;2.49;86.21;100912.19;1802468;79;21255;-70
2020/12/15 10:24:15;;;;;;;49.95;30.75;;;;;;;2.50;86.52;100916.03;1799211;79;21088;-73
2020/12/15 10:26:43;;;;;;;50.95;30.40;;;;;;;2.52;86.91;100906.59;1799337;79;20994;-70
2020/12/15 10:29:12;;;;;;;50.52;30.80;;;;;;;2.57;87.16;100904.83;1799188;79;21110;-72
2020/12/15 10:31:40;;;;;;;46.33;30.20;;;;;;;2.61;86.85;100905.22;1799364;79;20986;-71
2020/12/15 10:34:09;;;;;;;48.08;31.00;;;;;;;2.66;86.93;100897.47;1798906;79;21194;-70
2020/12/15 10:36:37;;;;;;;47.48;30.92;;;;;;;2.72;86.86;100897.41;1790841;79;21051;-70
2020/12/15 10:39:05;;;;;;;45.83;30.92;;;;;;;2.76;86.40;100896.95;1800432;79;21000;-75
2020/12/15 10:41:39;;;;;;;45.83;30.35;;;;;;;2.78;85.95;100903.78;1786661;79;21100;-72
2020/12/15 10:44:04;;;;;;;43.40;29.23;;;;;;;2.76;85.73;100900.37;1830348;77;21619;-73
2020/12/15 10:46:34;;;;;;;44.60;30.02;;;;;;;2.76;85.60;100903.38;1829432;77;21325;-72
2020/12/15 10:49:06;;;;;;;47.75;30.60;;;;;;;2.76;85.38;100899.52;1794475;79;21067;-74
2020/12/15 10:51:38;;;;;;;48.95;30.97;;;;;;;2.75;85.16;100895.23;1811349;77;21640;-73
2020/12/15 10:54:06;;;;;;;46.33;29.48;;;;;;;2.72;85.08;100890.98;1774789;79;21103;-71
2020/12/15 10:56:34;;;;;;;45.60;30.45;;;;;;;2.73;84.98;100886.69;1810066;77;21074;-70
2020/12/15 10:59:03;;;;;;;51.53;31.52;;;;;;;2.72;84.88;100884.55;1810522;77;21191;-73
2020/12/15 11:01:32;;;;;;;47.25;30.60;;;;;;;2.71;84.91;100889.27;1825555;77;21030;-70
2020/12/15 11:04:00;;;;;;;43.87;29.60;;;;;;;2.71;84.93;100889.70;1836623;78;20989;-70
2020/12/15 11:06:35;;;;;;;43.23;28.65;;;;;;;2.68;84.85;100891.44;1835545;77;21552;-71
2020/12/15 11:09:04;;;;;;;49.33;32.03;;;;;;;2.68;84.78;100891.44;1812420;77;21026;-69
2020/12/15 11:11:33;;;;;;;49.03;31.57;;;;;;;2.68;84.75;100898.30;1824272;77;21316;-68
2020/12/15 11:14:03;;;;;;;50.10;30.97;;;;;;;2.65;84.64;100897.90;1819941;77;21054;-68
2020/12/15 11:16:33;;;;;;;43.08;29.45;;;;;;;2.62;84.71;100899.22;1766012;79;20980;-68
2020/12/15 11:19:03;;;;;;;47.33;29.65;;;;;;;2.58;84.77;100898.82;1779661;78;21517;-70
2020/12/15 11:21:31;;;;;;;43.70;28.95;;;;;;;2.55;84.82;100898.84;1775591;79;21087;-67
2020/12/15 11:24:00;;;;;;;47.20;29.98;;;;;;;2.55;85.01;100901.85;1769969;79;21651;-67
2020/12/15 11:26:30;;;;;;;50.60;32.65;;;;;;;2.54;85.03;100910.00;1775041;78;21043;-70
2020/12/15 11:28:59;;;;;;;53.23;35.23;;;;;;;2.52;84.94;100909.16;1832837;77;21057;-69
2020/12/15 11:31:27;;;;;;;44.30;30.08;;;;;;;2.52;84.88;100905.73;1829139;77;21047;-69